sensor_id;sensor_type;location;lat;lon;timestamp;pressure;altitude;pressure_sealevel;temperature;humidity
42003;BME280;27693;50.506;30.832;2023-11-19T00:00:39;100326.72;;;-0.19;75.58
42003;BME280;27693;50.506;30.832;2023-11-19T00:01:41;100331.87;;;-0.11;76.66
42003;BME280;27693;50.506;30.832;2023-11-19T00:02:44;100323.38;;;-0.09;76.81
42003;BME280;27693;50.506;30.832;2023-11-19T00:03:46;100321.73;;;-0.02;76.05
42003;BME280;27693;50.506;30.832;2023-11-19T00:04:50;100329.41;;;-0.02;75.95
42003;BME280;27693;50.506;30.832;2023-11-19T00:05:52;100331.84;;;-0.18;76.03
42003;BME280;27693;50.506;30.832;2023-11-19T00:06:55;100326.64;;;-0.27;75.88
42003;BME280;27693;50.506;30.832;2023-11-19T00:07:59;100327.52;;;-0.25;76.03
42003;BME280;27693;50.506;30.832;2023-11-19T00:09:02;100328.41;;;-0.20;75.96
42003;BME280;27693;50.506;30.832;2023-11-19T00:10:09;100327.56;;;-0.17;75.96
42003;BME280;27693;50.506;30.832;2023-11-19T00:11:12;100319.09;;;-0.11;75.64
42003;BME280;27693;50.506;30.832;2023-11-19T00:12:16;100319.13;;;-0.08;77.16
42003;BME280;27693;50.506;30.832;2023-11-19T00:13:18;100314.85;;;-0.11;75.87
42003;BME280;27693;50.506;30.832;2023-11-19T00:14:21;100319.09;;;-0.10;75.52
42003;BME280;27693;50.506;30.832;2023-11-19T00:15:23;100324.25;;;-0.07;75.60
42003;BME280;27693;50.506;30.832;2023-11-19T00:16:27;100327.69;;;-0.03;75.19
42003;BME280;27693;50.506;30.832;2023-11-19T00:17:30;100317.45;;;-0.05;75.13
42003;BME280;27693;50.506;30.832;2023-11-19T00:18:32;100317.45;;;-0.05;75.13
42003;BME280;27693;50.506;30.832;2023-11-19T00:19:34;100322.49;;;-0.12;75.77
42003;BME280;27693;50.506;30.832;2023-11-19T00:20:38;100310.58;;;-0.10;75.37
42003;BME280;27693;50.506;30.832;2023-11-19T00:21:40;100319.92;;;-0.15;76.04
42003;BME280;27693;50.506;30.832;2023-11-19T00:22:44;100323.38;;;-0.10;76.00
42003;BME280;27693;50.506;30.832;2023-11-19T00:23:50;100320.02;;;-0.03;75.31
42003;BME280;27693;50.506;30.832;2023-11-19T00:24:54;100322.56;;;-0.05;75.63
42003;BME280;27693;50.506;30.832;2023-11-19T00:25:56;100321.73;;;0.01;75.60
42003;BME280;27693;50.506;30.832;2023-11-19T00:27:00;100325.16;;;0.00;75.38
42003;BME280;27693;50.506;30.832;2023-11-19T00:28:02;100324.28;;;-0.04;74.51
42003;BME280;27693;50.506;30.832;2023-11-19T00:29:05;100326.77;;;-0.11;74.41
42003;BME280;27693;50.506;30.832;2023-11-19T00:30:10;100324.20;;;-0.13;74.50
42003;BME280;27693;50.506;30.832;2023-11-19T00:31:12;100326.72;;;-0.21;74.81
42003;BME280;27693;50.506;30.832;2023-11-19T00:32:15;100330.06;;;-0.26;75.00
42003;BME280;27693;50.506;30.832;2023-11-19T00:33:18;100321.52;;;-0.27;75.11
42003;BME280;27693;50.506;30.832;2023-11-19T00:34:20;100323.23;;;-0.29;75.05
42003;BME280;27693;50.506;30.832;2023-11-19T00:35:25;100325.80;;;-0.26;76.41
42003;BME280;27693;50.506;30.832;2023-11-19T00:36:27;100315.61;;;-0.21;75.98
42003;BME280;27693;50.506;30.832;2023-11-19T00:37:30;100317.38;;;-0.15;75.64
42003;BME280;27693;50.506;30.832;2023-11-19T00:38:32;100313.98;;;-0.11;75.56
42003;BME280;27693;50.506;30.832;2023-11-19T00:39:35;100313.14;;;-0.10;75.28
42003;BME280;27693;50.506;30.832;2023-11-19T00:40:38;100314.81;;;-0.15;74.94
42003;BME280;27693;50.506;30.832;2023-11-19T00:41:40;100318.17;;;-0.20;75.15
42003;BME280;27693;50.506;30.832;2023-11-19T00:42:43;100316.49;;;-0.18;75.08
42003;BME280;27693;50.506;30.832;2023-11-19T00:43:46;100316.53;;;-0.14;77.28
42003;BME280;27693;50.506;30.832;2023-11-19T00:44:48;100316.58;;;-0.05;79.18
42003;BME280;27693;50.506;30.832;2023-11-19T00:45:52;100313.22;;;-0.01;77.65
42003;BME280;27693;50.506;30.832;2023-11-19T00:46:55;100316.69;;;0.10;75.47
42003;BME280;27693;50.506;30.832;2023-11-19T00:47:57;100316.69;;;0.10;75.47
42003;BME280;27693;50.506;30.832;2023-11-19T00:49:01;100320.05;;;0.00;74.68
42003;BME280;27693;50.506;30.832;2023-11-19T00:50:05;100317.42;;;-0.06;74.92
42003;BME280;27693;50.506;30.832;2023-11-19T00:51:08;100318.25;;;-0.10;74.64
42003;BME280;27693;50.506;30.832;2023-11-19T00:52:13;100320.77;;;-0.15;74.97
42003;BME280;27693;50.506;30.832;2023-11-19T00:53:16;100320.77;;;-0.18;75.26
42003;BME280;27693;50.506;30.832;2023-11-19T00:54:18;100323.33;;;-0.17;76.83
42003;BME280;27693;50.506;30.832;2023-11-19T00:55:21;100313.13;;;-0.12;76.37
42003;BME280;27693;50.506;30.832;2023-11-19T00:56:25;100310.62;;;-0.06;76.53
42003;BME280;27693;50.506;30.832;2023-11-19T00:57:27;100320.89;;;0.01;75.60
42003;BME280;27693;50.506;30.832;2023-11-19T00:58:29;100320.89;;;0.01;75.60
42003;BME280;27693;50.506;30.832;2023-11-19T00:59:33;100320.05;;;0.03;75.13
42003;BME280;27693;50.506;30.832;2023-11-19T01:00:35;100320.09;;;0.06;74.89
42003;BME280;27693;50.506;30.832;2023-11-19T01:01:39;100314.06;;;-0.01;74.88
42003;BME280;27693;50.506;30.832;2023-11-19T01:02:42;100312.17;;;-0.25;74.93
42003;BME280;27693;50.506;30.832;2023-11-19T01:03:45;100311.30;;;-0.27;75.41
42003;BME280;27693;50.506;30.832;2023-11-19T01:04:47;100311.30;;;-0.27;75.15
42003;BME280;27693;50.506;30.832;2023-11-19T01:05:50;100318.08;;;-0.32;75.22
42003;BME280;27693;50.506;30.832;2023-11-19T01:06:54;100307.85;;;-0.32;75.64
42003;BME280;27693;50.506;30.832;2023-11-19T01:07:57;100306.22;;;-0.24;76.17
42003;BME280;27693;50.506;30.832;2023-11-19T01:09:00;100307.89;;;-0.29;76.10
42003;BME280;27693;50.506;30.832;2023-11-19T01:10:03;100308.69;;;-0.35;75.44
42003;BME280;27693;50.506;30.832;2023-11-19T01:11:05;100310.36;;;-0.38;75.77
42003;BME280;27693;50.506;30.832;2023-11-19T01:12:08;100307.80;;;-0.38;75.33
42003;BME280;27693;50.506;30.832;2023-11-19T01:13:12;100301.02;;;-0.33;76.41
42003;BME280;27693;50.506;30.832;2023-11-19T01:14:14;100307.05;;;-0.28;75.91
42003;BME280;27693;50.506;30.832;2023-11-19T01:15:17;100305.29;;;-0.34;75.58
42003;BME280;27693;50.506;30.832;2023-11-19T01:16:21;100309.52;;;-0.39;75.48
42003;BME280;27693;50.506;30.832;2023-11-19T01:17:24;100306.92;;;-0.40;75.54
42003;BME280;27693;50.506;30.832;2023-11-19T01:18:26;100303.56;;;-0.36;76.82
42003;BME280;27693;50.506;30.832;2023-11-19T01:19:28;100304.49;;;-0.28;76.49
42003;BME280;27693;50.506;30.832;2023-11-19T01:20:31;100301.91;;;-0.29;76.57
42003;BME280;27693;50.506;30.832;2023-11-19T01:21:36;100297.70;;;-0.24;77.23
42003;BME280;27693;50.506;30.832;2023-11-19T01:22:38;100293.47;;;-0.19;76.32
42003;BME280;27693;50.506;30.832;2023-11-19T01:23:41;100290.03;;;-0.21;75.78
42003;BME280;27693;50.506;30.832;2023-11-19T01:24:47;100296.88;;;-0.17;76.30
42003;BME280;27693;50.506;30.832;2023-11-19T01:25:50;100289.20;;;-0.19;76.24
42003;BME280;27693;50.506;30.832;2023-11-19T01:26:53;100280.69;;;-0.21;75.80
42003;BME280;27693;50.506;30.832;2023-11-19T01:27:55;100282.37;;;-0.20;75.47
42003;BME280;27693;50.506;30.832;2023-11-19T01:28:59;100282.37;;;-0.20;75.34
42003;BME280;27693;50.506;30.832;2023-11-19T01:30:03;100282.32;;;-0.29;75.13
42003;BME280;27693;50.506;30.832;2023-11-19T01:31:07;100287.44;;;-0.29;76.05
42003;BME280;27693;50.506;30.832;2023-11-19T01:32:10;100297.67;;;-0.26;76.22
42003;BME280;27693;50.506;30.832;2023-11-19T01:33:14;100286.55;;;-0.31;75.66
42003;BME280;27693;50.506;30.832;2023-11-19T01:34:17;100283.08;;;-0.39;75.76
42003;BME280;27693;50.506;30.832;2023-11-19T01:35:20;100285.63;;;-0.39;76.39
42003;BME280;27693;50.506;30.832;2023-11-19T01:36:22;100290.83;;;-0.30;76.48
42003;BME280;27693;50.506;30.832;2023-11-19T01:37:25;100287.44;;;-0.29;76.81
42003;BME280;27693;50.506;30.832;2023-11-19T01:38:27;100288.19;;;-0.38;76.61
42003;BME280;27693;50.506;30.832;2023-11-19T01:39:30;100290.78;;;-0.35;76.40
42003;BME280;27693;50.506;30.832;2023-11-19T01:40:32;100285.72;;;-0.27;76.27
42003;BME280;27693;50.506;30.832;2023-11-19T01:41:35;100277.20;;;-0.29;76.70
42003;BME280;27693;50.506;30.832;2023-11-19T01:42:38;100283.16;;;-0.30;76.38
42003;BME280;27693;50.506;30.832;2023-11-19T01:43:42;100270.38;;;-0.27;76.31
42003;BME280;27693;50.506;30.832;2023-11-19T01:45:00;100277.13;;;-0.38;76.56
42003;BME280;27693;50.506;30.832;2023-11-19T01:46:01;100269.45;;;-0.41;76.57
42003;BME280;27693;50.506;30.832;2023-11-19T01:47:06;100273.73;;;-0.34;78.09
42003;BME280;27693;50.506;30.832;2023-11-19T01:48:09;100274.61;;;-0.30;77.60
42003;BME280;27693;50.506;30.832;2023-11-19T01:49:14;100277.13;;;-0.38;77.00
42003;BME280;27693;50.506;30.832;2023-11-19T01:50:18;100277.13;;;-0.38;77.00
42003;BME280;27693;50.506;30.832;2023-11-19T01:51:22;100270.25;;;-0.45;77.54
42003;BME280;27693;50.506;30.832;2023-11-19T01:52:25;100271.13;;;-0.43;77.57
42003;BME280;27693;50.506;30.832;2023-11-19T01:53:28;100277.92;;;-0.44;77.27
42003;BME280;27693;50.506;30.832;2023-11-19T01:54:31;100272.80;;;-0.49;77.46
42003;BME280;27693;50.506;30.832;2023-11-19T01:55:35;100277.03;;;-0.47;78.26
42003;BME280;27693;50.506;30.832;2023-11-19T01:56:38;100269.41;;;-0.44;78.76
42003;BME280;27693;50.506;30.832;2023-11-19T01:57:44;100272.85;;;-0.39;77.84
42003;BME280;27693;50.506;30.832;2023-11-19T01:58:48;100269.45;;;-0.37;76.70
42003;BME280;27693;50.506;30.832;2023-11-19T01:59:53;100269.50;;;-0.34;77.16
42003;BME280;27693;50.506;30.832;2023-11-19T02:00:56;100276.29;;;-0.34;77.30
42003;BME280;27693;50.506;30.832;2023-11-19T02:02:00;100277.13;;;-0.38;76.53
42003;BME280;27693;50.506;30.832;2023-11-19T02:03:05;100270.33;;;-0.36;76.25
42003;BME280;27693;50.506;30.832;2023-11-19T02:04:11;100272.05;;;-0.32;76.37
42003;BME280;27693;50.506;30.832;2023-11-19T02:05:14;100276.24;;;-0.42;78.01
42003;BME280;27693;50.506;30.832;2023-11-19T02:06:19;100276.23;;;-0.43;77.58
42003;BME280;27693;50.506;30.832;2023-11-19T02:07:22;100275.44;;;-0.36;77.09
42003;BME280;27693;50.506;30.832;2023-11-19T02:08:26;100276.38;;;-0.26;76.92
42003;BME280;27693;50.506;30.832;2023-11-19T02:09:28;100277.13;;;-0.40;76.72
42003;BME280;27693;50.506;30.832;2023-11-19T02:10:32;100266.02;;;-0.43;76.59
42003;BME280;27693;50.506;30.832;2023-11-19T02:11:35;100277.13;;;-0.38;76.96
42003;BME280;27693;50.506;30.832;2023-11-19T02:12:37;100267.78;;;-0.35;76.43
42003;BME280;27693;50.506;30.832;2023-11-19T02:13:39;100265.18;;;-0.39;76.38
42003;BME280;27693;50.506;30.832;2023-11-19T02:14:43;100267.73;;;-0.41;77.54
42003;BME280;27693;50.506;30.832;2023-11-19T02:15:45;100259.09;;;-0.54;77.15
42003;BME280;27693;50.506;30.832;2023-11-19T02:16:48;100259.93;;;-0.58;77.04
42003;BME280;27693;50.506;30.832;2023-11-19T02:17:51;100256.54;;;-0.54;77.56
42003;BME280;27693;50.506;30.832;2023-11-19T02:18:53;100268.52;;;-0.50;77.60
42003;BME280;27693;50.506;30.832;2023-11-19T02:19:56;100260.85;;;-0.50;76.90
42003;BME280;27693;50.506;30.832;2023-11-19T02:21:01;100259.18;;;-0.46;77.25
42003;BME280;27693;50.506;30.832;2023-11-19T02:22:04;100258.34;;;-0.43;76.89
42003;BME280;27693;50.506;30.832;2023-11-19T02:23:08;100256.59;;;-0.47;76.47
42003;BME280;27693;50.506;30.832;2023-11-19T02:24:14;100270.15;;;-0.58;76.63
42003;BME280;27693;50.506;30.832;2023-11-19T02:25:28;100272.72;;;-0.55;77.35
42003;BME280;27693;50.506;30.832;2023-11-19T02:26:34;100270.20;;;-0.52;76.86
42003;BME280;27693;50.506;30.832;2023-11-19T02:27:51;100264.20;;;-0.55;76.82
42003;BME280;27693;50.506;30.832;2023-11-19T02:28:54;100259.93;;;-0.58;76.77
42003;BME280;27693;50.506;30.832;2023-11-19T02:29:57;100257.37;;;-0.58;76.95
42003;BME280;27693;50.506;30.832;2023-11-19T02:30:59;100258.26;;;-0.53;77.27
42003;BME280;27693;50.506;30.832;2023-11-19T02:32:01;100261.70;;;-0.47;78.22
42003;BME280;27693;50.506;30.832;2023-11-19T02:33:05;100259.97;;;-0.52;78.75
42003;BME280;27693;50.506;30.832;2023-11-19T02:34:12;100257.45;;;-0.49;77.75
42003;BME280;27693;50.506;30.832;2023-11-19T02:35:15;100266.80;;;-0.51;77.18
42003;BME280;27693;50.506;30.832;2023-11-19T02:36:18;100264.30;;;-0.43;78.30
42003;BME280;27693;50.506;30.832;2023-11-19T02:37:21;100262.66;;;-0.36;77.95
42003;BME280;27693;50.506;30.832;2023-11-19T02:38:24;100260.06;;;-0.42;76.77
42003;BME280;27693;50.506;30.832;2023-11-19T02:39:27;100255.79;;;-0.42;76.66
42003;BME280;27693;50.506;30.832;2023-11-19T02:40:30;100257.52;;;-0.39;77.02
42003;BME280;27693;50.506;30.832;2023-11-19T02:41:32;100260.10;;;-0.36;76.83
42003;BME280;27693;50.506;30.832;2023-11-19T02:42:34;100259.14;;;-0.47;76.47
42003;BME280;27693;50.506;30.832;2023-11-19T02:43:38;100265.13;;;-0.45;76.96
42003;BME280;27693;50.506;30.832;2023-11-19T02:44:45;100273.63;;;-0.50;77.12
42003;BME280;27693;50.506;30.832;2023-11-19T02:45:47;100265.13;;;-0.49;77.58
42003;BME280;27693;50.506;30.832;2023-11-19T02:46:50;100265.97;;;-0.48;77.24
42003;BME280;27693;50.506;30.832;2023-11-19T02:47:53;100267.70;;;-0.44;77.92
42003;BME280;27693;50.506;30.832;2023-11-19T02:48:56;100261.78;;;-0.38;77.15
42003;BME280;27693;50.506;30.832;2023-11-19T02:49:59;100254.06;;;-0.46;76.83
42003;BME280;27693;50.506;30.832;2023-11-19T02:51:03;100257.42;;;-0.52;77.43
42003;BME280;27693;50.506;30.832;2023-11-19T02:52:07;100257.45;;;-0.49;77.20
42003;BME280;27693;50.506;30.832;2023-11-19T02:53:11;100262.58;;;-0.47;76.89
42003;BME280;27693;50.506;30.832;2023-11-19T02:54:15;100260.90;;;-0.45;79.00
42003;BME280;27693;50.506;30.832;2023-11-19T02:55:18;100255.74;;;-0.50;77.64
42003;BME280;27693;50.506;30.832;2023-11-19T02:56:22;100254.06;;;-0.46;77.52
42003;BME280;27693;50.506;30.832;2023-11-19T02:57:31;100255.78;;;-0.45;77.89
42003;BME280;27693;50.506;30.832;2023-11-19T02:58:34;100247.28;;;-0.41;77.63
42003;BME280;27693;50.506;30.832;2023-11-19T02:59:39;100254.91;;;-0.49;77.11
42003;BME280;27693;50.506;30.832;2023-11-19T03:00:44;100250.63;;;-0.48;77.15
42003;BME280;27693;50.506;30.832;2023-11-19T03:01:48;100248.12;;;-0.43;77.03
42003;BME280;27693;50.506;30.832;2023-11-19T03:02:52;100247.23;;;-0.45;77.10
42003;BME280;27693;50.506;30.832;2023-11-19T03:04:02;100243.84;;;-0.43;78.99
42003;BME280;27693;50.506;30.832;2023-11-19T03:05:07;100232.78;;;-0.43;77.83
42003;BME280;27693;50.506;30.832;2023-11-19T03:06:12;100243.00;;;-0.43;77.17
42003;BME280;27693;50.506;30.832;2023-11-19T03:07:14;100241.33;;;-0.38;77.27
42003;BME280;27693;50.506;30.832;2023-11-19T03:08:16;100231.14;;;-0.35;76.98
42003;BME280;27693;50.506;30.832;2023-11-19T03:09:21;100231.14;;;-0.35;76.53
42003;BME280;27693;50.506;30.832;2023-11-19T03:10:23;100229.42;;;-0.36;76.50
42003;BME280;27693;50.506;30.832;2023-11-19T03:11:26;100228.58;;;-0.34;76.47
42003;BME280;27693;50.506;30.832;2023-11-19T03:12:28;100222.59;;;-0.34;76.37
42003;BME280;27693;50.506;30.832;2023-11-19T03:13:30;100221.72;;;-0.38;76.15
42003;BME280;27693;50.506;30.832;2023-11-19T03:14:33;100218.33;;;-0.37;76.55
42003;BME280;27693;50.506;30.832;2023-11-19T03:15:37;100220.72;;;-0.60;76.50
42003;BME280;27693;50.506;30.832;2023-11-19T03:16:40;100210.53;;;-0.57;78.35
42003;BME280;27693;50.506;30.832;2023-11-19T03:17:43;100214.84;;;-0.50;78.07
42003;BME280;27693;50.506;30.832;2023-11-19T03:18:45;100207.14;;;-0.53;77.50
42003;BME280;27693;50.506;30.832;2023-11-19T03:19:47;100212.24;;;-0.56;77.27
42003;BME280;27693;50.506;30.832;2023-11-19T03:20:50;100202.02;;;-0.56;77.40
42003;BME280;27693;50.506;30.832;2023-11-19T03:21:54;100208.81;;;-0.56;77.20
42003;BME280;27693;50.506;30.832;2023-11-19T03:22:57;100211.37;;;-0.58;77.37
42003;BME280;27693;50.506;30.832;2023-11-19T03:24:04;100207.98;;;-0.55;77.61
42003;BME280;27693;50.506;30.832;2023-11-19T03:25:07;100203.70;;;-0.55;77.53
42003;BME280;27693;50.506;30.832;2023-11-19T03:26:11;100204.59;;;-0.51;77.96
42003;BME280;27693;50.506;30.832;2023-11-19T03:27:14;100209.77;;;-0.45;79.13
42003;BME280;27693;50.506;30.832;2023-11-19T03:28:18;100201.22;;;-0.49;78.26
42003;BME280;27693;50.506;30.832;2023-11-19T03:29:21;100202.94;;;-0.43;79.30
42003;BME280;27693;50.506;30.832;2023-11-19T03:30:25;100199.47;;;-0.51;78.40
42003;BME280;27693;50.506;30.832;2023-11-19T03:31:29;100205.42;;;-0.54;77.78
42003;BME280;27693;50.506;30.832;2023-11-19T03:32:32;100196.91;;;-0.53;77.64
42003;BME280;27693;50.506;30.832;2023-11-19T03:33:36;100206.33;;;-0.49;77.20
42003;BME280;27693;50.506;30.832;2023-11-19T03:34:40;100201.19;;;-0.50;78.58
42003;BME280;27693;50.506;30.832;2023-11-19T03:35:42;100201.22;;;-0.49;77.80
42003;BME280;27693;50.506;30.832;2023-11-19T03:36:45;100198.62;;;-0.52;77.20
42003;BME280;27693;50.506;30.832;2023-11-19T03:37:49;100206.30;;;-0.50;76.92
42003;BME280;27693;50.506;30.832;2023-11-19T03:38:53;100206.37;;;-0.41;76.90
42003;BME280;27693;50.506;30.832;2023-11-19T03:39:57;100208.93;;;-0.42;76.41
42003;BME280;27693;50.506;30.832;2023-11-19T03:41:11;100213.17;;;-0.44;76.60
42003;BME280;27693;50.506;30.832;2023-11-19T03:42:14;100208.05;;;-0.46;76.58
42003;BME280;27693;50.506;30.832;2023-11-19T03:43:16;100211.48;;;-0.42;76.59
42003;BME280;27693;50.506;30.832;2023-11-19T03:44:22;100210.66;;;-0.38;76.53
42003;BME280;27693;50.506;30.832;2023-11-19T03:45:24;100208.94;;;-0.41;76.22
42003;BME280;27693;50.506;30.832;2023-11-19T03:46:27;100207.22;;;-0.43;76.71
42003;BME280;27693;50.506;30.832;2023-11-19T03:47:29;100209.77;;;-0.43;77.34
42003;BME280;27693;50.506;30.832;2023-11-19T03:48:31;100191.91;;;-0.37;77.34
42003;BME280;27693;50.506;30.832;2023-11-19T03:49:34;100208.13;;;-0.30;76.92
42003;BME280;27693;50.506;30.832;2023-11-19T03:50:37;100209.01;;;-0.30;76.08
42003;BME280;27693;50.506;30.832;2023-11-19T03:51:39;100204.73;;;-0.29;75.98
42003;BME280;27693;50.506;30.832;2023-11-19T03:52:42;100198.78;;;-0.27;75.86
42003;BME280;27693;50.506;30.832;2023-11-19T03:53:46;100203.97;;;-0.21;75.66
42003;BME280;27693;50.506;30.832;2023-11-19T03:54:48;100203.97;;;-0.18;75.40
42003;BME280;27693;50.506;30.832;2023-11-19T03:55:51;100203.16;;;-0.12;75.38
42003;BME280;27693;50.506;30.832;2023-11-19T03:56:54;100200.53;;;-0.20;74.70
42003;BME280;27693;50.506;30.832;2023-11-19T03:57:56;100191.14;;;-0.22;74.42
42003;BME280;27693;50.506;30.832;2023-11-19T03:58:58;100193.63;;;-0.36;73.73
42003;BME280;27693;50.506;30.832;2023-11-19T04:00:01;100191.84;;;-0.50;74.20
42003;BME280;27693;50.506;30.832;2023-11-19T04:01:11;100194.36;;;-0.51;74.68
42003;BME280;27693;50.506;30.832;2023-11-19T04:02:17;100193.48;;;-0.55;74.53
42003;BME280;27693;50.506;30.832;2023-11-19T04:03:19;100198.62;;;-0.53;74.91
42003;BME280;27693;50.506;30.832;2023-11-19T04:04:21;100194.39;;;-0.50;75.54
42003;BME280;27693;50.506;30.832;2023-11-19T04:05:24;100201.22;;;-0.49;74.79
42003;BME280;27693;50.506;30.832;2023-11-19T04:06:26;100198.59;;;-0.56;74.66
42003;BME280;27693;50.506;30.832;2023-11-19T04:07:29;100185.81;;;-0.56;74.76
42003;BME280;27693;50.506;30.832;2023-11-19T04:08:32;100190.92;;;-0.55;75.04
42003;BME280;27693;50.506;30.832;2023-11-19T04:09:34;100185.02;;;-0.47;75.20
42003;BME280;27693;50.506;30.832;2023-11-19T04:10:38;100196.98;;;-0.43;74.84
42003;BME280;27693;50.506;30.832;2023-11-19T04:11:40;100191.00;;;-0.44;74.36
42003;BME280;27693;50.506;30.832;2023-11-19T04:12:43;100188.48;;;-0.42;74.34
42003;BME280;27693;50.506;30.832;2023-11-19T04:13:46;100188.48;;;-0.39;74.80
42003;BME280;27693;50.506;30.832;2023-11-19T04:14:49;100185.89;;;-0.45;74.63
42003;BME280;27693;50.506;30.832;2023-11-19T04:15:53;100179.86;;;-0.54;74.16
42003;BME280;27693;50.506;30.832;2023-11-19T04:16:56;100180.74;;;-0.50;74.25
42003;BME280;27693;50.506;30.832;2023-11-19T04:17:59;100182.45;;;-0.51;73.74
42003;BME280;27693;50.506;30.832;2023-11-19T04:19:01;100179.06;;;-0.46;73.74
42003;BME280;27693;50.506;30.832;2023-11-19T04:20:05;100179.13;;;-0.36;74.08
42003;BME280;27693;50.506;30.832;2023-11-19T04:21:08;100181.69;;;-0.34;73.51
42003;BME280;27693;50.506;30.832;2023-11-19T04:22:11;100177.41;;;-0.38;73.48
42003;BME280;27693;50.506;30.832;2023-11-19T04:23:13;100183.37;;;-0.39;73.43
42003;BME280;27693;50.506;30.832;2023-11-19T04:24:15;100181.62;;;-0.46;73.29
42003;BME280;27693;50.506;30.832;2023-11-19T04:25:17;100179.90;;;-0.51;73.78
42003;BME280;27693;50.506;30.832;2023-11-19T04:26:21;100183.26;;;-0.55;73.11
42003;BME280;27693;50.506;30.832;2023-11-19T04:27:23;100176.47;;;-0.53;73.61
42003;BME280;27693;50.506;30.832;2023-11-19T04:28:26;100173.11;;;-0.49;73.00
42003;BME280;27693;50.506;30.832;2023-11-19T04:29:29;100174.86;;;-0.41;72.63
42003;BME280;27693;50.506;30.832;2023-11-19T04:30:32;100176.50;;;-0.46;72.47
42003;BME280;27693;50.506;30.832;2023-11-19T04:31:35;100163.76;;;-0.43;72.58
42003;BME280;27693;50.506;30.832;2023-11-19T04:32:37;100168.03;;;-0.42;72.32
42003;BME280;27693;50.506;30.832;2023-11-19T04:33:40;100167.19;;;-0.41;72.07
42003;BME280;27693;50.506;30.832;2023-11-19T04:34:42;100164.59;;;-0.44;72.54
42003;BME280;27693;50.506;30.832;2023-11-19T04:35:44;100165.44;;;-0.44;73.16
42003;BME280;27693;50.506;30.832;2023-11-19T04:36:47;100165.44;;;-0.47;73.48
42003;BME280;27693;50.506;30.832;2023-11-19T04:37:49;100165.44;;;-0.44;72.87
42003;BME280;27693;50.506;30.832;2023-11-19T04:38:52;100161.13;;;-0.53;72.19
42003;BME280;27693;50.506;30.832;2023-11-19T04:39:54;100167.95;;;-0.52;72.26
42003;BME280;27693;50.506;30.832;2023-11-19T04:40:57;100173.07;;;-0.52;72.93
42003;BME280;27693;50.506;30.832;2023-11-19T04:42:00;100171.39;;;-0.46;72.47
42003;BME280;27693;50.506;30.832;2023-11-19T04:43:02;100175.66;;;-0.47;72.24
42003;BME280;27693;50.506;30.832;2023-11-19T04:44:04;100174.83;;;-0.44;72.31
42003;BME280;27693;50.506;30.832;2023-11-19T04:45:07;100172.27;;;-0.43;72.51
42003;BME280;27693;50.506;30.832;2023-11-19T04:46:13;100171.43;;;-0.42;72.12
42003;BME280;27693;50.506;30.832;2023-11-19T04:47:15;100179.02;;;-0.53;71.04
42003;BME280;27693;50.506;30.832;2023-11-19T04:48:17;100177.34;;;-0.52;71.41
42003;BME280;27693;50.506;30.832;2023-11-19T04:49:20;100178.22;;;-0.49;70.96
42003;BME280;27693;50.506;30.832;2023-11-19T04:50:23;100174.78;;;-0.47;71.63
42003;BME280;27693;50.506;30.832;2023-11-19T04:51:28;100179.05;;;-0.50;72.43
42003;BME280;27693;50.506;30.832;2023-11-19T04:52:31;100181.58;;;-0.53;71.99
42003;BME280;27693;50.506;30.832;2023-11-19T04:53:33;100174.75;;;-0.54;71.58
42003;BME280;27693;50.506;30.832;2023-11-19T04:54:35;100184.89;;;-0.66;71.67
42003;BME280;27693;50.506;30.832;2023-11-19T04:55:40;100183.17;;;-0.67;71.21
42003;BME280;27693;50.506;30.832;2023-11-19T04:56:46;100181.46;;;-0.68;71.09
42003;BME280;27693;50.506;30.832;2023-11-19T04:57:49;100178.91;;;-0.68;71.99
42003;BME280;27693;50.506;30.832;2023-11-19T04:58:51;100179.78;;;-0.66;71.97
42003;BME280;27693;50.506;30.832;2023-11-19T04:59:53;100189.13;;;-0.70;71.38
42003;BME280;27693;50.506;30.832;2023-11-19T05:00:56;100182.33;;;-0.69;71.53
42003;BME280;27693;50.506;30.832;2023-11-19T05:02:00;100183.97;;;-0.74;72.39
42003;BME280;27693;50.506;30.832;2023-11-19T05:03:02;100186.61;;;-0.65;72.88
42003;BME280;27693;50.506;30.832;2023-11-19T05:04:05;100185.73;;;-0.69;72.67
42003;BME280;27693;50.506;30.832;2023-11-19T05:05:09;100183.13;;;-0.73;72.86
42003;BME280;27693;50.506;30.832;2023-11-19T05:06:12;100184.80;;;-0.78;73.10
42003;BME280;27693;50.506;30.832;2023-11-19T05:07:15;100193.34;;;-0.76;73.69
42003;BME280;27693;50.506;30.832;2023-11-19T05:08:17;100190.80;;;-0.72;73.07
42003;BME280;27693;50.506;30.832;2023-11-19T05:09:19;100190.80;;;-0.73;73.16
42003;BME280;27693;50.506;30.832;2023-11-19T05:10:21;100191.59;;;-0.81;72.68
42003;BME280;27693;50.506;30.832;2023-11-19T05:11:23;100206.08;;;-0.78;73.02
42003;BME280;27693;50.506;30.832;2023-11-19T05:12:25;100186.56;;;-0.71;73.16
42003;BME280;27693;50.506;30.832;2023-11-19T05:13:28;100195.06;;;-0.72;72.72
42003;BME280;27693;50.506;30.832;2023-11-19T05:14:30;100190.75;;;-0.79;72.46
42003;BME280;27693;50.506;30.832;2023-11-19T05:15:32;100179.70;;;-0.75;72.65
42003;BME280;27693;50.506;30.832;2023-11-19T05:16:35;100178.81;;;-0.81;72.33
42003;BME280;27693;50.506;30.832;2023-11-19T05:17:38;100181.36;;;-0.84;72.17
42003;BME280;27693;50.506;30.832;2023-11-19T05:18:42;100183.78;;;-0.96;72.26
42003;BME280;27693;50.506;30.832;2023-11-19T05:19:46;100172.72;;;-0.98;71.97
42003;BME280;27693;50.506;30.832;2023-11-19T05:20:49;100177.88;;;-0.92;72.80
42003;BME280;27693;50.506;30.832;2023-11-19T05:21:52;100172.86;;;-0.83;73.31
42003;BME280;27693;50.506;30.832;2023-11-19T05:22:55;100176.34;;;-0.71;73.51
42003;BME280;27693;50.506;30.832;2023-11-19T05:23:57;100173.87;;;-0.62;73.13
42003;BME280;27693;50.506;30.832;2023-11-19T05:25:00;100172.98;;;-0.66;72.04
42003;BME280;27693;50.506;30.832;2023-11-19T05:26:06;100169.56;;;-0.66;71.99
42003;BME280;27693;50.506;30.832;2023-11-19T05:27:10;100171.28;;;-0.65;71.92